Time;durP1;ratioP1;P1;durP2;ratioP2;P2;SDS_P1;SDS_P2;PMS_P1;PMS_P2;Temp;Humidity;BMP_temperature;BMP_pressure;BME280_temperature;BME280_humidity;BME280_pressure;Samples;Min_cycle;Max_cycle;Signal;HPM_P1;HPM_P2
2023/06/02 00:01:17;;;;;;;19.00;3.67;;;;;;;;;;4984335;28;21367;-59
2023/06/02 00:03:44;;;;;;;12.23;3.20;;;;;;;;;;4983487;28;20746;-59
2023/06/02 00:06:09;;;;;;;18.42;3.15;;;;;;;;;;5014915;28;20224;-58
2023/06/02 00:08:38;;;;;;;14.65;3.10;;;;;;;;;;4983805;28;20688;-59
2023/06/02 00:11:03;;;;;;;13.07;3.33;;;;;;;;;;5001786;28;20875;-58
2023/06/02 00:13:28;;;;;;;12.85;3.20;;;;;;;;;;4998647;28;20216;-59
2023/06/02 00:15:54;;;;;;;14.68;3.67;;;;;;;;;;4979476;28;20211;-59
2023/06/02 00:18:22;;;;;;;10.52;2.95;;;;;;;;;;4974870;28;20231;-59
2023/06/02 00:20:48;;;;;;;11.85;3.15;;;;;;;;;;4997339;28;20219;-59
2023/06/02 00:23:14;;;;;;;16.55;3.17;;;;;;;;;;5017265;28;20216;-59
2023/06/02 00:25:39;;;;;;;12.60;3.17;;;;;;;;;;5002550;28;20859;-59
2023/06/02 00:28:05;;;;;;;12.55;2.90;;;;;;;;;;5001877;28;20224;-58
2023/06/02 00:30:31;;;;;;;16.95;3.28;;;;;;;;;;4982764;28;20236;-59
2023/06/02 00:32:56;;;;;;;16.15;3.42;;;;;;;;;;4983192;28;20710;-59
2023/06/02 00:35:21;;;;;;;14.63;3.95;;;;;;;;;;4990304;28;20541;-59
2023/06/02 00:37:47;;;;;;;15.65;3.50;;;;;;;;;;4994481;28;20519;-59
2023/06/02 00:40:12;;;;;;;15.77;3.42;;;;;;;;;;4994204;28;20228;-59
2023/06/02 00:42:37;;;;;;;14.65;3.50;;;;;;;;;;4995550;28;20302;-59
2023/06/02 00:45:03;;;;;;;16.15;3.45;;;;;;;;;;5001628;28;20240;-58
2023/06/02 00:47:28;;;;;;;15.07;3.10;;;;;;;;;;5001870;28;21044;-58
2023/06/02 00:49:54;;;;;;;14.25;3.15;;;;;;;;;;4982843;28;20227;-59
2023/06/02 00:52:19;;;;;;;11.43;2.85;;;;;;;;;;4991938;28;20204;-59
2023/06/02 00:54:45;;;;;;;15.98;3.25;;;;;;;;;;4982931;28;20217;-59
2023/06/02 00:57:10;;;;;;;15.20;3.38;;;;;;;;;;4983464;28;20213;-58
2023/06/02 00:59:38;;;;;;;15.60;3.60;;;;;;;;;;4987264;28;20208;-59
2023/06/02 01:02:03;;;;;;;14.73;3.33;;;;;;;;;;5008466;28;20212;-58
2023/06/02 01:04:30;;;;;;;10.88;3.03;;;;;;;;;;4993954;28;20781;-59
2023/06/02 01:06:55;;;;;;;15.55;4.10;;;;;;;;;;5009034;28;20201;-58
2023/06/02 01:09:20;;;;;;;14.73;3.40;;;;;;;;;;4996975;28;20290;-58
2023/06/02 01:11:48;;;;;;;16.13;3.28;;;;;;;;;;4982964;28;20295;-59
2023/06/02 01:14:14;;;;;;;16.23;3.50;;;;;;;;;;4998092;28;20225;-58
2023/06/02 01:16:39;;;;;;;14.05;3.75;;;;;;;;;;4997271;28;20629;-59
2023/06/02 01:19:06;;;;;;;16.02;3.58;;;;;;;;;;4982044;28;20209;-58
2023/06/02 01:21:34;;;;;;;14.88;3.67;;;;;;;;;;4992660;28;20702;-59
2023/06/02 01:23:59;;;;;;;14.82;3.40;;;;;;;;;;4988882;28;20494;-59
2023/06/02 01:26:25;;;;;;;17.52;3.75;;;;;;;;;;4973815;28;20232;-58
2023/06/02 01:28:50;;;;;;;14.43;3.40;;;;;;;;;;4997969;28;20224;-58
2023/06/02 01:31:20;;;;;;;13.50;3.50;;;;;;;;;;4986959;28;20695;-59
2023/06/02 01:34:05;;;;;;;16.73;3.88;;;;;;;;;;5003900;28;20303;-58
2023/06/02 01:36:31;;;;;;;13.30;3.63;;;;;;;;;;5011243;28;20224;-59
2023/06/02 01:38:57;;;;;;;15.18;3.83;;;;;;;;;;5004354;28;20915;-59
2023/06/02 01:41:22;;;;;;;12.15;3.75;;;;;;;;;;5000604;28;20240;-58
2023/06/02 01:43:47;;;;;;;15.23;3.70;;;;;;;;;;4998191;28;20212;-59
2023/06/02 01:46:12;;;;;;;11.80;3.72;;;;;;;;;;4978177;28;20249;-58
2023/06/02 01:48:38;;;;;;;16.95;3.30;;;;;;;;;;4977413;28;20320;-59
2023/06/02 01:51:04;;;;;;;15.85;3.40;;;;;;;;;;4986767;28;20217;-58
2023/06/02 01:53:29;;;;;;;13.25;3.20;;;;;;;;;;4990037;28;20634;-58
2023/06/02 01:55:54;;;;;;;13.07;3.90;;;;;;;;;;4989734;28;20213;-58
2023/06/02 01:58:20;;;;;;;13.93;3.50;;;;;;;;;;5006225;28;20247;-58
2023/06/02 02:00:45;;;;;;;15.85;3.50;;;;;;;;;;5013168;28;20777;-58
2023/06/02 02:03:12;;;;;;;14.23;4.07;;;;;;;;;;5013194;28;20220;-58
2023/06/02 02:05:37;;;;;;;14.90;4.22;;;;;;;;;;5014842;28;20212;-59
2023/06/02 02:08:03;;;;;;;17.35;3.70;;;;;;;;;;5013420;28;20243;-58
2023/06/02 02:10:28;;;;;;;13.00;3.35;;;;;;;;;;5014666;28;20220;-58
2023/06/02 02:12:53;;;;;;;13.55;3.60;;;;;;;;;;5010052;28;20296;-59
2023/06/02 02:15:18;;;;;;;13.93;3.45;;;;;;;;;;4986394;28;20224;-59
2023/06/02 02:17:44;;;;;;;11.23;3.63;;;;;;;;;;5004413;28;20247;-59
2023/06/02 02:20:11;;;;;;;13.05;3.28;;;;;;;;;;5003962;28;20286;-58
2023/06/02 02:22:36;;;;;;;15.77;3.88;;;;;;;;;;5004698;28;20593;-59
2023/06/02 02:25:02;;;;;;;11.70;3.47;;;;;;;;;;4998128;28;20659;-58
2023/06/02 02:27:27;;;;;;;14.77;3.92;;;;;;;;;;4996463;28;20228;-58
2023/06/02 02:29:53;;;;;;;13.77;3.70;;;;;;;;;;4996110;28;20216;-59
2023/06/02 02:32:18;;;;;;;14.68;3.40;;;;;;;;;;5002986;28;20220;-59
2023/06/02 02:34:46;;;;;;;15.77;3.95;;;;;;;;;;5004163;28;20569;-59
2023/06/02 02:37:12;;;;;;;14.15;3.55;;;;;;;;;;5003611;28;20255;-58
2023/06/02 02:39:37;;;;;;;15.23;3.47;;;;;;;;;;5003276;28;20284;-59
2023/06/02 02:42:03;;;;;;;16.52;3.60;;;;;;;;;;5003292;28;20560;-58
2023/06/02 02:44:28;;;;;;;15.77;3.60;;;;;;;;;;5004386;28;20217;-59
2023/06/02 02:46:53;;;;;;;14.20;3.25;;;;;;;;;;5000468;28;20263;-59
2023/06/02 02:49:19;;;;;;;11.88;3.13;;;;;;;;;;4995481;28;20327;-58
2023/06/02 02:51:45;;;;;;;13.80;4.32;;;;;;;;;;4984214;28;20237;-59
2023/06/02 02:54:10;;;;;;;16.95;3.30;;;;;;;;;;4980307;28;20292;-58
2023/06/02 02:56:36;;;;;;;13.82;3.17;;;;;;;;;;4984924;28;20591;-59
2023/06/02 02:59:02;;;;;;;15.60;3.58;;;;;;;;;;4986234;28;20851;-57
2023/06/02 03:01:27;;;;;;;16.17;3.60;;;;;;;;;;5003762;28;20311;-58
2023/06/02 03:03:53;;;;;;;11.93;2.92;;;;;;;;;;4990490;28;20659;-58
2023/06/02 03:06:18;;;;;;;16.65;3.38;;;;;;;;;;4983970;28;20221;-59
2023/06/02 03:08:45;;;;;;;15.52;3.50;;;;;;;;;;4982840;28;20291;-59
2023/06/02 03:11:10;;;;;;;12.60;3.38;;;;;;;;;;4995373;28;20679;-58
2023/06/02 03:13:36;;;;;;;12.30;2.90;;;;;;;;;;4996272;28;20290;-59
2023/06/02 03:16:01;;;;;;;8.43;2.75;;;;;;;;;;5011007;28;20282;-59
2023/06/02 03:18:27;;;;;;;13.02;3.20;;;;;;;;;;5010949;28;20299;-58
2023/06/02 03:20:54;;;;;;;14.15;3.25;;;;;;;;;;5012630;28;20224;-58
2023/06/02 03:23:19;;;;;;;17.75;3.42;;;;;;;;;;5013079;28;20223;-58
2023/06/02 03:25:46;;;;;;;14.85;3.28;;;;;;;;;;5013261;28;20291;-58
2023/06/02 03:28:11;;;;;;;14.07;3.20;;;;;;;;;;5011661;28;20569;-59
2023/06/02 03:30:37;;;;;;;12.43;3.28;;;;;;;;;;5013542;28;20219;-58
2023/06/02 03:33:02;;;;;;;10.40;2.70;;;;;;;;;;5011720;28;20267;-58
2023/06/02 03:35:27;;;;;;;15.55;3.38;;;;;;;;;;5013449;28;20208;-58
2023/06/02 03:37:52;;;;;;;10.23;2.58;;;;;;;;;;5013222;28;20278;-59
2023/06/02 03:40:18;;;;;;;19.45;3.70;;;;;;;;;;5009424;28;20213;-58
2023/06/02 03:42:43;;;;;;;15.30;3.35;;;;;;;;;;4979507;28;20747;-58
2023/06/02 03:45:09;;;;;;;14.98;3.05;;;;;;;;;;4983214;28;20217;-58
2023/06/02 03:47:34;;;;;;;18.70;3.55;;;;;;;;;;4983438;28;20243;-59
2023/06/02 03:49:59;;;;;;;12.10;2.90;;;;;;;;;;4986796;28;20228;-58
2023/06/02 03:52:25;;;;;;;15.38;2.92;;;;;;;;;;4985618;28;20221;-58
2023/06/02 03:54:50;;;;;;;15.25;3.40;;;;;;;;;;5001744;28;20271;-58
2023/06/02 03:57:16;;;;;;;14.27;3.00;;;;;;;;;;4983511;28;20315;-59
2023/06/02 03:59:41;;;;;;;14.57;3.15;;;;;;;;;;4992685;28;20282;-59
2023/06/02 04:02:06;;;;;;;20.98;3.17;;;;;;;;;;4994270;28;20220;-59
2023/06/02 04:04:32;;;;;;;13.02;3.03;;;;;;;;;;4995699;28;20679;-58
2023/06/02 04:06:57;;;;;;;18.23;3.45;;;;;;;;;;4995703;28;20252;-59
2023/06/02 04:09:22;;;;;;;16.55;4.03;;;;;;;;;;4982465;28;20231;-58
2023/06/02 04:11:47;;;;;;;13.93;3.20;;;;;;;;;;4983249;28;20676;-59
2023/06/02 04:14:13;;;;;;;17.77;3.70;;;;;;;;;;4983245;28;20390;-58
2023/06/02 04:16:38;;;;;;;17.98;3.33;;;;;;;;;;4983225;28;20240;-58
2023/06/02 04:19:05;;;;;;;17.60;3.30;;;;;;;;;;4983014;28;20758;-58
2023/06/02 04:21:30;;;;;;;17.10;3.13;;;;;;;;;;4997289;28;20216;-59
2023/06/02 04:23:56;;;;;;;13.32;2.78;;;;;;;;;;4993680;28;20270;-59
2023/06/02 04:26:21;;;;;;;11.95;3.00;;;;;;;;;;4993856;28;20247;-56
2023/06/02 04:28:46;;;;;;;14.82;3.10;;;;;;;;;;4985652;28;20247;-58
2023/06/02 04:31:11;;;;;;;14.73;2.72;;;;;;;;;;4982419;28;20280;-58
2023/06/02 04:33:37;;;;;;;21.15;3.50;;;;;;;;;;4988445;28;20248;-58
2023/06/02 04:36:03;;;;;;;18.50;3.85;;;;;;;;;;4983066;28;20209;-57
2023/06/02 04:38:28;;;;;;;18.38;3.40;;;;;;;;;;5001659;28;20250;-58
2023/06/02 04:40:56;;;;;;;19.15;3.15;;;;;;;;;;4994418;28;20216;-58
2023/06/02 04:43:21;;;;;;;15.07;3.15;;;;;;;;;;5005390;28;20215;-58
2023/06/02 04:45:47;;;;;;;16.88;2.83;;;;;;;;;;5009855;28;20208;-58
2023/06/02 04:48:12;;;;;;;13.10;2.95;;;;;;;;;;5009371;28;20252;-58
2023/06/02 04:50:38;;;;;;;15.07;3.10;;;;;;;;;;5004770;28;20225;-58
2023/06/02 04:53:03;;;;;;;13.63;2.70;;;;;;;;;;4974849;28;20221;-58
2023/06/02 04:55:28;;;;;;;16.63;2.80;;;;;;;;;;4976099;28;20213;-58
2023/06/02 04:57:53;;;;;;;16.45;3.10;;;;;;;;;;5009571;28;20281;-58
2023/06/02 05:00:19;;;;;;;15.38;2.95;;;;;;;;;;5001696;28;20557;-58
2023/06/02 05:02:45;;;;;;;13.63;2.72;;;;;;;;;;5002044;28;20215;-58
2023/06/02 05:05:11;;;;;;;15.68;2.78;;;;;;;;;;5000608;28;20216;-59
2023/06/02 05:07:36;;;;;;;15.38;3.35;;;;;;;;;;4989973;28;20231;-58
2023/06/02 05:10:01;;;;;;;16.83;3.13;;;;;;;;;;5000914;28;20231;-58
2023/06/02 05:12:27;;;;;;;15.18;3.13;;;;;;;;;;5001626;28;20224;-58
2023/06/02 05:14:53;;;;;;;17.15;2.80;;;;;;;;;;4988464;28;20288;-58
2023/06/02 05:17:27;;;;;;;16.73;3.10;;;;;;;;;;4973212;28;20569;-58
2023/06/02 05:19:53;;;;;;;14.75;2.63;;;;;;;;;;4992888;28;20211;-58
2023/06/02 05:22:19;;;;;;;11.40;2.60;;;;;;;;;;5000685;28;20235;-58
2023/06/02 05:24:44;;;;;;;14.67;3.00;;;;;;;;;;5001686;28;20429;-58
2023/06/02 05:27:09;;;;;;;18.02;3.10;;;;;;;;;;4989624;28;20612;-58
2023/06/02 05:29:35;;;;;;;12.18;2.90;;;;;;;;;;4982130;28;20252;-58
2023/06/02 05:32:00;;;;;;;13.30;3.15;;;;;;;;;;4981152;28;20213;-58
2023/06/02 05:34:25;;;;;;;13.20;3.00;;;;;;;;;;4981792;28;20427;-58
2023/06/02 05:36:51;;;;;;;15.77;2.80;;;;;;;;;;4978862;28;20244;-58
2023/06/02 05:39:16;;;;;;;12.23;2.83;;;;;;;;;;4974432;28;20221;-57
2023/06/02 05:41:42;;;;;;;12.75;2.70;;;;;;;;;;4977870;28;20232;-58
2023/06/02 05:44:07;;;;;;;12.00;2.47;;;;;;;;;;4978032;28;20217;-58
2023/06/02 05:46:32;;;;;;;12.30;2.58;;;;;;;;;;4970592;28;20282;-58
2023/06/02 05:48:58;;;;;;;12.93;2.70;;;;;;;;;;4982885;28;20312;-57
2023/06/02 05:51:23;;;;;;;12.32;3.42;;;;;;;;;;4981661;28;20217;-58
2023/06/02 05:53:51;;;;;;;18.15;2.83;;;;;;;;;;4982220;28;20221;-58
2023/06/02 05:56:17;;;;;;;15.65;2.85;;;;;;;;;;4990241;28;20224;-58
2023/06/02 05:58:42;;;;;;;14.73;2.85;;;;;;;;;;4998032;28;20205;-58
2023/06/02 06:01:09;;;;;;;18.08;3.38;;;;;;;;;;4974009;28;20224;-58
2023/06/02 06:03:36;;;;;;;13.88;3.08;;;;;;;;;;4991507;28;20735;-58
2023/06/02 06:06:02;;;;;;;19.15;3.08;;;;;;;;;;4995184;28;20270;-58
2023/06/02 06:08:27;;;;;;;16.70;3.10;;;;;;;;;;4983316;28;20649;-58
2023/06/02 06:10:52;;;;;;;13.55;2.92;;;;;;;;;;4981832;28;20236;-58
2023/06/02 06:13:18;;;;;;;14.45;3.00;;;;;;;;;;4998621;28;20221;-58
2023/06/02 06:15:43;;;;;;;16.75;2.90;;;;;;;;;;4992457;28;20208;-58
2023/06/02 06:18:08;;;;;;;13.65;3.10;;;;;;;;;;5001907;28;20687;-58
2023/06/02 06:20:34;;;;;;;11.30;2.60;;;;;;;;;;4985263;28;20217;-58
2023/06/02 06:22:59;;;;;;;15.57;3.08;;;;;;;;;;4978155;28;20825;-58
2023/06/02 06:25:25;;;;;;;13.30;3.33;;;;;;;;;;4996033;28;20222;-58
2023/06/02 06:27:50;;;;;;;12.00;2.63;;;;;;;;;;4996813;28;20237;-58
2023/06/02 06:30:16;;;;;;;16.33;3.15;;;;;;;;;;4991745;28;20624;-58
2023/06/02 06:32:41;;;;;;;18.88;2.90;;;;;;;;;;4985546;28;20295;-58
2023/06/02 06:35:07;;;;;;;13.85;2.78;;;;;;;;;;4985419;28;20236;-57
2023/06/02 06:37:32;;;;;;;13.52;2.97;;;;;;;;;;5003715;28;20598;-58
2023/06/02 06:39:57;;;;;;;13.15;2.28;;;;;;;;;;5002781;28;20212;-58
2023/06/02 06:42:23;;;;;;;14.77;3.20;;;;;;;;;;4985248;28;20225;-58
2023/06/02 06:44:49;;;;;;;17.48;2.60;;;;;;;;;;4980538;28;20209;-58
2023/06/02 06:47:14;;;;;;;12.27;3.00;;;;;;;;;;4984478;28;20221;-57
2023/06/02 06:49:40;;;;;;;15.73;2.92;;;;;;;;;;4977306;28;20221;-58
2023/06/02 06:52:06;;;;;;;15.02;3.00;;;;;;;;;;4983519;28;20590;-57
2023/06/02 06:54:31;;;;;;;16.17;3.10;;;;;;;;;;4985009;28;20262;-58
2023/06/02 06:56:57;;;;;;;11.57;2.72;;;;;;;;;;4986784;28;20683;-58
2023/06/02 06:59:22;;;;;;;14.35;3.40;;;;;;;;;;4985783;28;20239;-58
2023/06/02 07:01:47;;;;;;;13.80;3.15;;;;;;;;;;4998374;28;20271;-58
2023/06/02 07:04:12;;;;;;;13.82;3.08;;;;;;;;;;5010247;28;20240;-57
2023/06/02 07:06:38;;;;;;;15.93;3.65;;;;;;;;;;5011778;28;20651;-58
2023/06/02 07:09:03;;;;;;;17.90;3.40;;;;;;;;;;5010273;28;20235;-57
2023/06/02 07:11:28;;;;;;;12.60;3.47;;;;;;;;;;5011019;28;20212;-58
2023/06/02 07:13:54;;;;;;;12.38;2.88;;;;;;;;;;5013410;28;20619;-58
2023/06/02 07:16:21;;;;;;;14.77;3.45;;;;;;;;;;5012055;28;20227;-58
2023/06/02 07:18:46;;;;;;;14.93;2.90;;;;;;;;;;5012840;28;20554;-58
2023/06/02 07:21:11;;;;;;;16.27;4.10;;;;;;;;;;5012764;28;20278;-58
2023/06/02 07:23:37;;;;;;;10.20;3.30;;;;;;;;;;5013727;28;20213;-58
2023/06/02 07:26:02;;;;;;;12.93;3.30;;;;;;;;;;5012722;28;20209;-57
2023/06/02 07:28:28;;;;;;;10.38;2.90;;;;;;;;;;5012766;28;20275;-57
2023/06/02 07:30:53;;;;;;;11.65;3.15;;;;;;;;;;5013507;28;20212;-58
2023/06/02 07:33:18;;;;;;;16.85;2.60;;;;;;;;;;5012563;28;20240;-57
2023/06/02 07:35:44;;;;;;;17.60;3.72;;;;;;;;;;5013340;28;20204;-58
2023/06/02 07:38:09;;;;;;;21.33;3.22;;;;;;;;;;5013037;28;20585;-57
2023/06/02 07:40:34;;;;;;;15.88;3.10;;;;;;;;;;5012835;28;20239;-57
2023/06/02 07:43:00;;;;;;;16.35;3.28;;;;;;;;;;5013029;28;20204;-58
2023/06/02 07:45:25;;;;;;;14.15;3.20;;;;;;;;;;5012783;28;20212;-58
2023/06/02 07:47:51;;;;;;;13.90;3.10;;;;;;;;;;5012381;28;20224;-59
2023/06/02 07:50:16;;;;;;;17.75;3.92;;;;;;;;;;5012501;28;20290;-58
2023/06/02 07:52:41;;;;;;;16.25;3.05;;;;;;;;;;5013244;28;20208;-57
2023/06/02 07:55:07;;;;;;;21.35;3.63;;;;;;;;;;5012249;28;20282;-57
2023/06/02 07:57:32;;;;;;;16.45;3.28;;;;;;;;;;5005702;28;20213;-58
2023/06/02 07:59:57;;;;;;;15.60;3.20;;;;;;;;;;5012942;28;20636;-58
2023/06/02 08:02:23;;;;;;;13.40;3.05;;;;;;;;;;5003376;28;20213;-58
2023/06/02 08:04:48;;;;;;;13.73;2.90;;;;;;;;;;4996182;28;20232;-58
2023/06/02 08:07:13;;;;;;;13.68;3.38;;;;;;;;;;5011935;28;20570;-58
2023/06/02 08:09:38;;;;;;;15.07;3.33;;;;;;;;;;5008843;28;20224;-58
2023/06/02 08:12:04;;;;;;;16.90;3.88;;;;;;;;;;5012142;28;20223;-57
2023/06/02 08:14:29;;;;;;;15.68;3.63;;;;;;;;;;5010543;28;20219;-58
2023/06/02 08:16:55;;;;;;;12.13;3.08;;;;;;;;;;5012366;28;20204;-57
2023/06/02 08:19:22;;;;;;;13.93;3.28;;;;;;;;;;5012435;28;20216;-58
2023/06/02 08:21:47;;;;;;;13.27;2.90;;;;;;;;;;5012220;28;20220;-58
2023/06/02 08:24:13;;;;;;;15.13;3.25;;;;;;;;;;5012120;28;20299;-57
2023/06/02 08:26:39;;;;;;;12.75;3.33;;;;;;;;;;5012528;28;20208;-57
2023/06/02 08:29:08;;;;;;;10.90;2.92;;;;;;;;;;5011110;28;20323;-57
2023/06/02 08:31:35;;;;;;;16.70;3.20;;;;;;;;;;5010865;28;20300;-58
2023/06/02 08:34:01;;;;;;;15.50;3.03;;;;;;;;;;5012411;28;20370;-57
2023/06/02 08:36:27;;;;;;;13.95;2.78;;;;;;;;;;5011660;28;20669;-58
2023/06/02 08:38:52;;;;;;;15.23;3.70;;;;;;;;;;5012416;28;20204;-58
2023/06/02 08:41:18;;;;;;;12.88;3.47;;;;;;;;;;5011613;28;20671;-58
2023/06/02 08:43:43;;;;;;;12.70;3.65;;;;;;;;;;5011552;28;20583;-58
2023/06/02 08:46:12;;;;;;;12.82;3.30;;;;;;;;;;5011436;28;20227;-57
2023/06/02 08:48:37;;;;;;;12.95;2.80;;;;;;;;;;5012389;28;20228;-58
2023/06/02 08:51:03;;;;;;;11.52;3.55;;;;;;;;;;5010092;28;20558;-57
2023/06/02 08:53:28;;;;;;;12.50;3.28;;;;;;;;;;5011749;28;20208;-58
2023/06/02 08:55:54;;;;;;;13.18;3.90;;;;;;;;;;5012280;28;20267;-58
2023/06/02 08:58:19;;;;;;;13.43;3.60;;;;;;;;;;5010777;28;20275;-58
2023/06/02 09:00:45;;;;;;;15.05;4.43;;;;;;;;;;5011917;28;20222;-58
2023/06/02 09:03:12;;;;;;;14.45;4.30;;;;;;;;;;5011769;28;20205;-57
2023/06/02 09:05:37;;;;;;;10.70;3.78;;;;;;;;;;5011682;28;20247;-58
2023/06/02 09:08:11;;;;;;;10.35;3.92;;;;;;;;;;5011509;28;20256;-57
2023/06/02 09:10:40;;;;;;;14.80;3.80;;;;;;;;;;5010266;28;20246;-58
2023/06/02 09:13:08;;;;;;;14.70;3.38;;;;;;;;;;5009838;28;20219;-58
2023/06/02 09:15:35;;;;;;;8.98;3.50;;;;;;;;;;5009699;28;20232;-58
2023/06/02 09:18:13;;;;;;;10.05;3.60;;;;;;;;;;5011473;28;20644;-58
2023/06/02 09:20:39;;;;;;;19.13;4.03;;;;;;;;;;5011490;28;20321;-58
2023/06/02 09:23:04;;;;;;;16.48;3.60;;;;;;;;;;5010263;28;20223;-58
2023/06/02 09:25:29;;;;;;;12.05;3.67;;;;;;;;;;5011219;28;20212;-58
2023/06/02 09:27:58;;;;;;;13.95;4.15;;;;;;;;;;5011131;28;20231;-58
2023/06/02 09:30:24;;;;;;;12.88;3.75;;;;;;;;;;5011435;28;20223;-57
2023/06/02 09:33:06;;;;;;;15.60;4.25;;;;;;;;;;5011196;28;20247;-58
2023/06/02 09:35:35;;;;;;;14.65;3.80;;;;;;;;;;5011411;28;20212;-58
2023/06/02 09:38:00;;;;;;;17.60;5.22;;;;;;;;;;5011744;28;20741;-57
2023/06/02 09:40:27;;;;;;;12.82;4.30;;;;;;;;;;5011132;28;20209;-57
2023/06/02 09:42:52;;;;;;;17.27;4.20;;;;;;;;;;5011281;28;20226;-57
2023/06/02 09:45:18;;;;;;;13.30;3.92;;;;;;;;;;5009828;28;20295;-58
2023/06/02 09:47:43;;;;;;;16.75;4.72;;;;;;;;;;5010974;28;20216;-58
2023/06/02 09:50:09;;;;;;;15.30;4.53;;;;;;;;;;5011053;28;20213;-57
2023/06/02 09:52:35;;;;;;;13.05;4.50;;;;;;;;;;5008120;28;20244;-58
2023/06/02 09:55:00;;;;;;;14.93;4.18;;;;;;;;;;5014617;28;20263;-58
2023/06/02 09:57:25;;;;;;;16.45;4.88;;;;;;;;;;5012145;28;20220;-58
2023/06/02 09:59:51;;;;;;;15.45;4.65;;;;;;;;;;5013105;28;20774;-57
2023/06/02 10:02:16;;;;;;;14.02;4.50;;;;;;;;;;5012568;28;20223;-57
2023/06/02 10:04:41;;;;;;;15.48;4.25;;;;;;;;;;5014256;28;20239;-58
2023/06/02 10:07:13;;;;;;;17.15;5.05;;;;;;;;;;5012895;28;20655;-57
2023/06/02 10:09:39;;;;;;;14.52;4.10;;;;;;;;;;5014080;28;20224;-58
2023/06/02 10:12:43;;;;;;;22.65;5.22;;;;;;;;;;5014193;28;20294;-57
2023/06/02 10:15:08;;;;;;;15.00;4.63;;;;;;;;;;4982167;28;20668;-58
2023/06/02 10:17:36;;;;;;;13.52;4.50;;;;;;;;;;4992665;28;20216;-58
2023/06/02 10:20:08;;;;;;;16.63;4.70;;;;;;;;;;5003109;28;20548;-57
2023/06/02 10:22:33;;;;;;;14.70;4.45;;;;;;;;;;5014606;28;20276;-58
2023/06/02 10:25:17;;;;;;;15.35;4.50;;;;;;;;;;5014564;28;20674;-58
2023/06/02 10:27:45;;;;;;;14.43;4.85;;;;;;;;;;5014187;28;20367;-58
2023/06/02 10:30:10;;;;;;;15.20;4.70;;;;;;;;;;5013987;28;20303;-58
2023/06/02 10:32:46;;;;;;;15.40;4.38;;;;;;;;;;5014919;28;20668;-58
2023/06/02 10:35:11;;;;;;;15.15;4.50;;;;;;;;;;5013778;28;20351;-58
2023/06/02 10:37:37;;;;;;;15.40;5.38;;;;;;;;;;5014555;28;20292;-58
2023/06/02 10:40:03;;;;;;;15.77;4.95;;;;;;;;;;5014285;28;20223;-57
2023/06/02 10:42:30;;;;;;;19.25;4.60;;;;;;;;;;5013713;28;20304;-58
2023/06/02 10:45:14;;;;;;;20.13;5.65;;;;;;;;;;5014381;28;20209;-58
2023/06/02 10:47:39;;;;;;;17.25;5.53;;;;;;;;;;5011782;28;20596;-58
2023/06/02 10:50:09;;;;;;;13.73;5.03;;;;;;;;;;5013310;28;20223;-58
2023/06/02 10:52:35;;;;;;;16.65;5.15;;;;;;;;;;5023130;28;20217;-58
2023/06/02 10:55:13;;;;;;;14.23;4.85;;;;;;;;;;5013973;28;20238;-58
2023/06/02 10:57:57;;;;;;;17.77;4.78;;;;;;;;;;5013661;28;20216;-58
2023/06/02 11:00:22;;;;;;;19.08;6.35;;;;;;;;;;5014057;28;20243;-57
2023/06/02 11:02:47;;;;;;;13.68;4.03;;;;;;;;;;5013993;28;20204;-58
2023/06/02 11:05:31;;;;;;;12.48;4.88;;;;;;;;;;5013588;28;20224;-59
2023/06/02 11:08:15;;;;;;;15.93;4.65;;;;;;;;;;5014503;28;20640;-59
2023/06/02 11:10:44;;;;;;;18.83;5.57;;;;;;;;;;5013730;28;20667;-59
2023/06/02 11:13:10;;;;;;;15.75;5.30;;;;;;;;;;5013441;28;20679;-58
2023/06/02 11:15:35;;;;;;;15.70;4.88;;;;;;;;;;5014301;28;20211;-58
2023/06/02 11:18:03;;;;;;;17.92;5.60;;;;;;;;;;5013043;28;20212;-58
2023/06/02 11:20:34;;;;;;;20.45;5.25;;;;;;;;;;5014145;28;20291;-58
2023/06/02 11:23:06;;;;;;;15.00;5.40;;;;;;;;;;5014202;28;20668;-59
2023/06/02 11:25:31;;;;;;;16.83;5.13;;;;;;;;;;5013399;28;20295;-58
2023/06/02 11:27:56;;;;;;;14.70;4.97;;;;;;;;;;5013480;28;20272;-59
2023/06/02 11:30:22;;;;;;;15.93;5.25;;;;;;;;;;5013555;28;20215;-59
2023/06/02 11:32:48;;;;;;;16.85;5.35;;;;;;;;;;5013509;28;20216;-59
2023/06/02 11:35:14;;;;;;;12.88;5.10;;;;;;;;;;5013240;28;20216;-58
2023/06/02 11:37:43;;;;;;;18.00;5.13;;;;;;;;;;5014139;28;20212;-58
2023/06/02 11:40:10;;;;;;;16.83;5.05;;;;;;;;;;5012973;28;20212;-58
2023/06/02 11:42:36;;;;;;;21.20;5.00;;;;;;;;;;5013563;28;20311;-59
2023/06/02 11:45:01;;;;;;;14.48;4.50;;;;;;;;;;5012132;28;20287;-58
2023/06/02 11:47:26;;;;;;;19.05;5.20;;;;;;;;;;5012834;28;20276;-59
2023/06/02 11:49:52;;;;;;;17.25;5.32;;;;;;;;;;5013484;28;20235;-59
2023/06/02 11:52:17;;;;;;;15.30;4.93;;;;;;;;;;5012850;28;20259;-59
2023/06/02 11:54:50;;;;;;;16.50;5.53;;;;;;;;;;5012305;28;20267;-59
2023/06/02 11:57:35;;;;;;;18.70;5.50;;;;;;;;;;5012902;28;20216;-59
2023/06/02 12:00:11;;;;;;;15.50;5.32;;;;;;;;;;5012377;28;20218;-58
2023/06/02 12:02:39;;;;;;;15.85;5.00;;;;;;;;;;5013354;28;20224;-59
2023/06/02 12:05:14;;;;;;;12.48;4.63;;;;;;;;;;5010950;28;20585;-59
2023/06/02 12:07:39;;;;;;;18.20;5.68;;;;;;;;;;5011357;28;20207;-59
2023/06/02 12:10:06;;;;;;;13.70;5.18;;;;;;;;;;5012505;28;20250;-59
2023/06/02 12:12:31;;;;;;;17.05;5.57;;;;;;;;;;5013036;28;20615;-59
2023/06/02 12:14:57;;;;;;;18.02;5.07;;;;;;;;;;5011755;28;20220;-59
2023/06/02 12:17:22;;;;;;;15.20;5.68;;;;;;;;;;5012592;28;20220;-59
2023/06/02 12:19:57;;;;;;;22.10;5.93;;;;;;;;;;5013149;28;20286;-59
2023/06/02 12:22:22;;;;;;;15.23;5.35;;;;;;;;;;5010453;28;20299;-59
2023/06/02 12:24:48;;;;;;;13.48;5.32;;;;;;;;;;5013146;28;20291;-59
2023/06/02 12:27:20;;;;;;;19.83;5.82;;;;;;;;;;5012432;28;20597;-59
2023/06/02 12:29:45;;;;;;;18.63;5.22;;;;;;;;;;5012873;28;20277;-59
2023/06/02 12:32:11;;;;;;;15.43;5.22;;;;;;;;;;5012724;28;20225;-58
2023/06/02 12:34:37;;;;;;;20.77;6.30;;;;;;;;;;5012152;28;20291;-59
2023/06/02 12:37:03;;;;;;;20.17;5.55;;;;;;;;;;5012387;28;20227;-58
2023/06/02 12:39:28;;;;;;;18.80;5.38;;;;;;;;;;5012912;28;20234;-59
2023/06/02 12:41:53;;;;;;;15.88;5.03;;;;;;;;;;5012133;28;20223;-59
2023/06/02 12:44:19;;;;;;;16.10;5.55;;;;;;;;;;5012329;28;20338;-59
2023/06/02 12:46:44;;;;;;;18.33;6.40;;;;;;;;;;5012837;28;20213;-59
2023/06/02 12:49:11;;;;;;;19.05;5.93;;;;;;;;;;5011658;28;20232;-59
2023/06/02 12:51:36;;;;;;;20.48;5.65;;;;;;;;;;5012312;28;20204;-59
2023/06/02 12:54:01;;;;;;;15.90;5.50;;;;;;;;;;5012337;28;20290;-58
2023/06/02 12:56:27;;;;;;;17.77;5.68;;;;;;;;;;5011870;28;20216;-59
2023/06/02 12:58:52;;;;;;;15.85;5.38;;;;;;;;;;5012480;28;20212;-59
2023/06/02 13:01:18;;;;;;;13.68;5.00;;;;;;;;;;5012033;28;20223;-59
2023/06/02 13:03:49;;;;;;;16.30;5.35;;;;;;;;;;5012042;28;20208;-59
2023/06/02 13:06:14;;;;;;;18.85;6.00;;;;;;;;;;5012132;28;20308;-59
2023/06/02 13:08:40;;;;;;;21.05;5.60;;;;;;;;;;5011373;28;20304;-59
2023/06/02 13:11:06;;;;;;;17.30;5.70;;;;;;;;;;5011146;28;20212;-59
2023/06/02 13:13:31;;;;;;;15.07;5.57;;;;;;;;;;5012219;28;20706;-60
2023/06/02 13:15:56;;;;;;;17.70;5.75;;;;;;;;;;5012331;28;20251;-59
2023/06/02 13:18:22;;;;;;;21.30;6.13;;;;;;;;;;5011505;28;20212;-59
2023/06/02 13:20:47;;;;;;;17.45;5.60;;;;;;;;;;5011737;28;20266;-59
2023/06/02 13:23:13;;;;;;;18.98;5.65;;;;;;;;;;5012058;28;20244;-59
2023/06/02 13:25:38;;;;;;;17.50;5.38;;;;;;;;;;5011351;28;20295;-59
2023/06/02 13:28:04;;;;;;;15.40;5.30;;;;;;;;;;5015706;28;20224;-59
2023/06/02 13:30:30;;;;;;;13.77;5.55;;;;;;;;;;5016397;28;20689;-60
2023/06/02 13:32:55;;;;;;;19.30;5.47;;;;;;;;;;5015635;28;20223;-59
2023/06/02 13:35:20;;;;;;;16.02;5.00;;;;;;;;;;5015699;28;20223;-59
2023/06/02 13:37:45;;;;;;;13.85;4.82;;;;;;;;;;5015510;28;20208;-59
2023/06/02 13:40:11;;;;;;;13.75;5.07;;;;;;;;;;5015349;28;20247;-60
2023/06/02 13:42:37;;;;;;;13.25;5.55;;;;;;;;;;5016264;28;20219;-59
2023/06/02 13:45:02;;;;;;;15.18;4.85;;;;;;;;;;5015117;28;20204;-59
2023/06/02 13:47:28;;;;;;;14.77;5.00;;;;;;;;;;5015804;28;20219;-59
2023/06/02 13:49:53;;;;;;;14.13;5.07;;;;;;;;;;5015781;28;20240;-59
2023/06/02 13:52:18;;;;;;;15.02;5.03;;;;;;;;;;5014775;28;20247;-59
2023/06/02 13:54:44;;;;;;;12.23;4.90;;;;;;;;;;5015782;28;20211;-59
2023/06/02 13:57:09;;;;;;;17.02;5.47;;;;;;;;;;5012234;28;20582;-59
2023/06/02 13:59:34;;;;;;;15.88;5.35;;;;;;;;;;4989099;28;20213;-60
2023/06/02 14:02:00;;;;;;;17.63;5.00;;;;;;;;;;4994051;28;20286;-60
2023/06/02 14:04:25;;;;;;;10.95;4.70;;;;;;;;;;5002514;28;20223;-60
2023/06/02 14:06:51;;;;;;;14.00;5.15;;;;;;;;;;4999265;28;20669;-59
2023/06/02 14:09:16;;;;;;;20.50;5.85;;;;;;;;;;4989311;28;20233;-59
2023/06/02 14:11:43;;;;;;;12.80;5.30;;;;;;;;;;4989923;28;20208;-60
2023/06/02 14:14:08;;;;;;;13.02;5.03;;;;;;;;;;4989497;28;20232;-59
2023/06/02 14:16:33;;;;;;;16.85;5.45;;;;;;;;;;5007511;28;20224;-60
2023/06/02 14:18:59;;;;;;;15.02;4.63;;;;;;;;;;5008600;28;20215;-60
2023/06/02 14:21:26;;;;;;;13.88;4.85;;;;;;;;;;5016962;28;20727;-60
2023/06/02 14:23:51;;;;;;;13.43;4.97;;;;;;;;;;4989065;28;20539;-60
2023/06/02 14:26:17;;;;;;;13.90;5.18;;;;;;;;;;4982837;28;20221;-60